Rechercher aéroport 
image banner adimage banner adimage banner ad
image banner ad

6CA4 - East Valley Sheriff's Station

Situé à Thousand Oaks, United States

ICAO - 6CA4, IATA -

Données fournies par Airmate  

Information générale

Coordonnées: N34°14'49" W118°50'8"
Élévation : 917 feet MSL.
Variation magnétique : 14° East
Voir autres Aéroports à California

Données opérationnelles

Special qualification required
Heure actuelle UTC:
Heure actuelle locale:
Météo à : KCMA - Camarillo ( 24 km )
METAR: KCMA 020555Z AUTO 27003KT 10SM CLR 18/14 A3002 RMK AO2 SLP175 T01830139 10250 20183 50005 $
TAF: KCMA 020533Z 0206/0306 VRB03KT P6SM SKC FM022100 25010KT P6SM SKC FM030400 VRB03KT P6SM SKC
Voir NOTAMs / SUP AIP / TFR affectant cet aéroport [VIEW]
Fréquences de communication: [VIEW]

Pistes:

Coordonnées de l'aéroport

Adresse: Thousand Oaks United States

Vue satellite de 6CA4